Time;durP1;ratioP1;P1;durP2;ratioP2;P2;SDS_P1;SDS_P2;PMS_P1;PMS_P2;Temp;Humidity;BMP_temperature;BMP_pressure;BME280_temperature;BME280_humidity;BME280_pressure;Samples;Min_cycle;Max_cycle;Signal;HPM_P1;HPM_P2
2021/09/11 00:02:11;;;;;;;10.77;9.83;;;20.10;99.90;;;;;;4972826;28;20196;-62
2021/09/11 00:04:38;;;;;;;10.77;9.97;;;20.00;99.90;;;;;;4968747;28;20181;-62
2021/09/11 00:07:03;;;;;;;10.40;9.67;;;20.00;99.90;;;;;;4953872;28;20236;-63
2021/09/11 00:09:29;;;;;;;11.90;11.00;;;20.00;99.90;;;;;;4953455;28;20460;-62
2021/09/11 00:11:54;;;;;;;12.40;11.40;;;20.00;99.90;;;;;;4953664;29;20512;-61
2021/09/11 00:14:20;;;;;;;10.00;9.20;;;20.00;99.90;;;;;;4953816;28;20165;-62
2021/09/11 00:16:45;;;;;;;11.30;10.50;;;20.00;99.90;;;;;;4953921;28;20169;-62
2021/09/11 00:19:11;;;;;;;10.70;9.90;;;19.90;99.90;;;;;;4972508;28;20203;-61
2021/09/11 00:21:38;;;;;;;9.87;9.17;;;19.90;99.90;;;;;;4973039;28;20176;-57
2021/09/11 00:24:05;;;;;;;10.80;9.90;;;19.90;99.90;;;;;;4972665;28;20192;-62
2021/09/11 00:26:30;;;;;;;11.13;10.33;;;19.90;99.90;;;;;;4972802;28;20427;-62
2021/09/11 00:28:56;;;;;;;12.17;11.13;;;19.80;99.90;;;;;;4972714;28;20832;-62
2021/09/11 00:31:21;;;;;;;10.10;9.20;;;19.80;99.90;;;;;;4976147;28;20185;-63
2021/09/11 00:33:47;;;;;;;10.83;10.03;;;19.80;99.90;;;;;;4976665;28;20255;-61
2021/09/11 00:36:12;;;;;;;9.80;9.10;;;19.80;99.90;;;;;;4976683;28;20160;-61
2021/09/11 00:38:38;;;;;;;9.70;9.00;;;19.90;99.90;;;;;;4976224;28;20187;-62
2021/09/11 00:41:03;;;;;;;10.80;10.00;;;19.90;99.90;;;;;;4976488;28;20196;-60
2021/09/11 00:43:30;;;;;;;10.40;9.60;;;20.10;99.90;;;;;;4976814;28;20235;-57
2021/09/11 00:45:56;;;;;;;9.60;8.90;;;20.00;99.90;;;;;;4969481;28;20181;-58
2021/09/11 00:48:22;;;;;;;9.83;9.10;;;19.90;99.90;;;;;;4956947;28;20539;-59
2021/09/11 00:50:48;;;;;;;10.90;10.00;;;19.80;99.90;;;;;;4957020;28;20523;-57
2021/09/11 00:53:14;;;;;;;10.13;9.43;;;19.80;99.90;;;;;;4957082;29;20656;-60
2021/09/11 00:55:43;;;;;;;11.50;10.60;;;19.70;99.90;;;;;;4956839;28;20507;-60
2021/09/11 00:58:09;;;;;;;10.23;9.43;;;19.70;99.90;;;;;;4956920;29;20420;-62
2021/09/11 01:00:34;;;;;;;10.03;9.13;;;19.60;99.90;;;;;;4956474;28;20447;-62
2021/09/11 01:03:00;;;;;;;11.27;9.97;;;19.50;99.90;;;;;;4971724;28;20650;-62
2021/09/11 01:05:25;;;;;;;10.50;9.60;;;19.40;99.90;;;;;;4956944;28;20169;-63
2021/09/11 01:07:51;;;;;;;10.37;9.57;;;19.40;99.90;;;;;;4957166;28;20177;-62
2021/09/11 01:10:17;;;;;;;11.37;10.37;;;19.20;99.90;;;;;;4971079;28;20192;-63
2021/09/11 01:12:43;;;;;;;10.37;9.63;;;19.20;99.90;;;;;;4956721;29;20247;-62
2021/09/11 01:15:11;;;;;;;11.30;10.50;;;19.20;99.90;;;;;;4970597;28;20200;-61
2021/09/11 01:17:40;;;;;;;11.10;10.30;;;19.10;99.90;;;;;;4975959;28;20471;-62
2021/09/11 01:20:06;;;;;;;11.37;10.50;;;19.10;99.90;;;;;;4975055;28;20474;-61
2021/09/11 01:22:32;;;;;;;10.93;10.13;;;19.00;99.90;;;;;;4975759;28;20416;-61
2021/09/11 01:25:04;;;;;;;9.67;8.97;;;19.00;99.90;;;;;;4974900;28;20454;-62
2021/09/11 01:27:31;;;;;;;10.77;9.80;;;18.90;99.90;;;;;;4975574;28;20183;-63
2021/09/11 01:30:03;;;;;;;11.53;10.73;;;18.90;99.90;;;;;;4975319;28;20840;-62
2021/09/11 01:32:31;;;;;;;10.67;9.87;;;18.80;99.90;;;;;;4975535;28;20514;-60
2021/09/11 01:34:56;;;;;;;10.53;9.73;;;18.70;99.90;;;;;;4975597;28;20995;-62
2021/09/11 01:37:22;;;;;;;11.03;10.13;;;18.70;99.90;;;;;;4975360;28;20423;-62
2021/09/11 01:39:49;;;;;;;11.73;10.93;;;18.70;99.90;;;;;;4975143;28;20198;-61
2021/09/11 01:42:16;;;;;;;10.67;9.87;;;18.70;99.90;;;;;;4970204;28;20268;-62
2021/09/11 01:44:49;;;;;;;11.17;10.27;;;18.70;99.90;;;;;;4956175;28;20427;-62
2021/09/11 01:47:15;;;;;;;11.00;10.07;;;18.70;99.90;;;;;;4975140;28;20445;-62
2021/09/11 01:49:44;;;;;;;11.40;10.50;;;18.70;99.90;;;;;;4974870;28;20843;-62
2021/09/11 01:52:10;;;;;;;11.00;10.30;;;18.70;99.90;;;;;;4975194;28;20177;-61
2021/09/11 01:54:37;;;;;;;10.27;9.27;;;18.70;99.90;;;;;;4974585;28;20432;-62
2021/09/11 01:57:07;;;;;;;10.80;9.90;;;18.80;99.90;;;;;;4975177;28;20462;-62
2021/09/11 01:59:33;;;;;;;10.83;9.97;;;18.80;99.90;;;;;;4974725;28;20443;-62
2021/09/11 02:01:59;;;;;;;11.00;10.20;;;18.80;99.90;;;;;;4974707;28;20956;-63
2021/09/11 02:04:24;;;;;;;11.60;10.70;;;18.80;99.90;;;;;;4974572;28;20424;-62
2021/09/11 02:06:51;;;;;;;11.20;10.30;;;18.80;99.90;;;;;;4973774;28;20180;-63
2021/09/11 02:09:16;;;;;;;10.87;10.00;;;18.80;99.90;;;;;;4974477;28;20752;-61
2021/09/11 02:11:42;;;;;;;10.90;10.10;;;18.90;99.90;;;;;;4974904;28;20523;-63
2021/09/11 02:14:07;;;;;;;11.30;10.37;;;18.80;99.90;;;;;;4967565;28;20177;-62
2021/09/11 02:16:33;;;;;;;10.57;9.77;;;18.80;99.90;;;;;;4955603;29;20212;-60
2021/09/11 02:18:58;;;;;;;10.23;9.53;;;18.80;99.90;;;;;;4954887;28;20192;-61
2021/09/11 02:21:24;;;;;;;10.90;10.10;;;19.00;99.90;;;;;;4955473;28;20207;-62
2021/09/11 02:23:49;;;;;;;9.77;9.07;;;18.90;99.90;;;;;;4959595;28;20207;-62
2021/09/11 02:26:15;;;;;;;10.23;9.33;;;19.00;99.90;;;;;;4974773;28;20215;-62
2021/09/11 02:28:43;;;;;;;11.80;10.80;;;19.10;99.90;;;;;;4974283;28;20196;-62
2021/09/11 02:31:09;;;;;;;10.50;9.00;;;19.10;99.90;;;;;;4974481;28;20486;-61
2021/09/11 02:33:35;;;;;;;10.40;9.50;;;19.20;99.90;;;;;;4974470;28;20415;-60
2021/09/11 02:36:00;;;;;;;9.47;8.87;;;19.20;99.90;;;;;;4974435;28;20415;-63
2021/09/11 02:38:26;;;;;;;9.70;9.00;;;19.20;99.90;;;;;;4974022;28;20176;-62
2021/09/11 02:40:51;;;;;;;9.53;8.73;;;19.20;99.90;;;;;;4974251;28;20200;-63
2021/09/11 02:43:17;;;;;;;9.13;8.43;;;19.20;99.90;;;;;;4973099;28;20187;-61
2021/09/11 02:45:42;;;;;;;10.50;9.70;;;19.20;99.90;;;;;;4974219;28;20172;-62
2021/09/11 02:48:08;;;;;;;9.77;8.97;;;19.30;99.90;;;;;;4974111;28;20279;-62
2021/09/11 02:50:33;;;;;;;11.03;10.23;;;19.30;99.90;;;;;;4973857;28;20203;-62
2021/09/11 02:52:59;;;;;;;10.20;9.30;;;19.40;99.90;;;;;;4973538;28;20164;-63
2021/09/11 02:55:24;;;;;;;10.67;9.80;;;19.20;99.90;;;;;;4973705;28;20195;-62
2021/09/11 02:57:50;;;;;;;9.80;9.00;;;19.10;99.90;;;;;;4974457;28;20689;-63
2021/09/11 03:00:15;;;;;;;10.90;10.10;;;19.10;99.90;;;;;;4967202;28;20691;-62
2021/09/11 03:02:41;;;;;;;11.03;10.23;;;19.10;99.90;;;;;;4954646;29;20173;-62
2021/09/11 03:05:07;;;;;;;11.30;10.50;;;19.10;99.90;;;;;;4954672;29;20176;-61
2021/09/11 03:07:32;;;;;;;10.53;9.63;;;19.10;99.90;;;;;;4954490;29;20215;-61
2021/09/11 03:09:58;;;;;;;10.43;9.60;;;19.20;99.90;;;;;;4954225;28;21013;-62
2021/09/11 03:12:23;;;;;;;12.63;9.73;;;19.30;99.90;;;;;;4954597;28;20199;-63
2021/09/11 03:14:49;;;;;;;10.13;9.27;;;19.20;99.90;;;;;;4954753;28;20173;-61
2021/09/11 03:17:14;;;;;;;9.63;9.03;;;19.10;99.90;;;;;;4954898;28;20205;-63
2021/09/11 03:19:40;;;;;;;9.47;8.77;;;19.10;99.90;;;;;;4957479;28;20617;-60
2021/09/11 03:22:05;;;;;;;10.27;9.57;;;19.10;99.90;;;;;;4973743;28;20222;-63
2021/09/11 03:24:31;;;;;;;9.70;8.90;;;19.10;99.90;;;;;;4973594;28;20184;-59
2021/09/11 03:26:56;;;;;;;9.27;8.60;;;19.10;99.90;;;;;;4972266;28;20172;-60
2021/09/11 03:29:22;;;;;;;10.03;9.23;;;19.10;99.90;;;;;;4973213;28;20204;-62
2021/09/11 03:31:47;;;;;;;9.80;8.87;;;19.20;99.90;;;;;;4973393;28;20173;-61
2021/09/11 03:34:13;;;;;;;9.30;8.60;;;19.20;99.90;;;;;;4972234;28;20587;-62
2021/09/11 03:36:38;;;;;;;9.10;8.50;;;19.20;99.90;;;;;;4973415;28;20664;-61
2021/09/11 03:39:04;;;;;;;10.00;9.30;;;19.20;99.90;;;;;;4973032;28;20176;-61
2021/09/11 03:41:30;;;;;;;8.53;7.93;;;19.20;99.90;;;;;;4973446;28;20226;-62
2021/09/11 03:43:55;;;;;;;10.13;9.43;;;19.30;99.90;;;;;;4973259;28;20180;-62
2021/09/11 03:46:21;;;;;;;8.70;7.90;;;19.20;99.90;;;;;;4973268;28;20180;-62
2021/09/11 03:48:46;;;;;;;9.73;8.93;;;19.20;99.90;;;;;;4955021;28;20674;-62
2021/09/11 03:51:12;;;;;;;9.10;8.40;;;19.20;99.90;;;;;;4953918;28;20213;-60
2021/09/11 03:53:37;;;;;;;8.67;8.07;;;19.10;99.90;;;;;;4954965;28;20176;-61
2021/09/11 03:56:03;;;;;;;8.80;8.20;;;19.10;99.90;;;;;;4953982;28;20172;-62
2021/09/11 03:58:28;;;;;;;9.00;8.30;;;19.00;99.90;;;;;;4953693;28;20215;-62
2021/09/11 04:00:54;;;;;;;8.43;7.73;;;19.00;99.90;;;;;;4971001;28;20553;-62
2021/09/11 04:03:20;;;;;;;7.80;7.30;;;19.00;99.90;;;;;;4973110;28;20212;-61
2021/09/11 04:05:45;;;;;;;7.07;6.63;;;19.00;99.90;;;;;;4975491;28;20613;-60
2021/09/11 04:08:11;;;;;;;8.23;7.63;;;19.00;99.90;;;;;;4977142;28;20192;-61
2021/09/11 04:10:36;;;;;;;8.20;7.60;;;18.90;99.90;;;;;;4976770;28;20278;-61
2021/09/11 04:13:02;;;;;;;7.73;7.13;;;19.00;99.90;;;;;;4977136;28;20172;-62
2021/09/11 04:15:27;;;;;;;7.33;6.73;;;19.00;99.90;;;;;;4976978;28;20221;-61
2021/09/11 04:17:53;;;;;;;7.30;6.70;;;19.00;99.90;;;;;;4977266;28;20693;-62
2021/09/11 04:20:18;;;;;;;7.93;7.20;;;19.00;99.90;;;;;;4977042;28;20290;-61
2021/09/11 04:22:44;;;;;;;7.10;6.60;;;18.90;99.90;;;;;;4967598;28;20173;-61
2021/09/11 04:25:10;;;;;;;7.53;6.97;;;18.80;99.90;;;;;;4971469;28;20270;-61
2021/09/11 04:27:35;;;;;;;7.10;6.50;;;18.80;99.90;;;;;;4976903;28;20176;-61
2021/09/11 04:30:01;;;;;;;8.30;7.70;;;18.70;99.90;;;;;;4974847;28;20748;-61
2021/09/11 04:32:26;;;;;;;6.30;5.80;;;18.70;99.90;;;;;;4976721;28;20183;-61
2021/09/11 04:34:52;;;;;;;6.30;5.90;;;18.70;99.90;;;;;;4976648;28;20183;-61
2021/09/11 04:37:18;;;;;;;7.23;6.60;;;18.60;99.90;;;;;;4976619;28;20180;-61
2021/09/11 04:39:43;;;;;;;6.60;6.00;;;18.50;99.90;;;;;;4976397;28;20224;-61
2021/09/11 04:42:09;;;;;;;8.00;7.40;;;18.50;99.90;;;;;;4976602;28;20176;-61
2021/09/11 04:44:34;;;;;;;7.13;6.53;;;18.50;99.90;;;;;;4977035;28;20176;-61
2021/09/11 04:47:00;;;;;;;6.90;6.30;;;18.40;99.90;;;;;;4969759;28;20176;-61
2021/09/11 04:49:25;;;;;;;6.23;5.73;;;18.50;99.90;;;;;;4956801;28;20212;-61
2021/09/11 04:51:51;;;;;;;6.73;6.23;;;18.50;99.90;;;;;;4963359;28;20181;-61
2021/09/11 04:54:16;;;;;;;6.50;6.00;;;18.50;99.90;;;;;;4957419;28;20244;-61
2021/09/11 04:56:42;;;;;;;6.20;5.80;;;18.50;99.90;;;;;;4956994;28;20304;-61
2021/09/11 04:59:07;;;;;;;6.63;6.13;;;18.50;99.90;;;;;;4956636;28;20694;-61
2021/09/11 05:01:33;;;;;;;6.83;6.30;;;18.50;99.90;;;;;;4956737;28;20310;-61
2021/09/11 05:03:58;;;;;;;6.53;5.90;;;18.60;99.90;;;;;;4956950;28;20169;-61
2021/09/11 05:06:24;;;;;;;7.97;7.30;;;18.60;99.90;;;;;;4956681;28;20172;-61
2021/09/11 05:08:49;;;;;;;7.80;7.10;;;18.60;99.90;;;;;;4956428;28;20561;-61
2021/09/11 05:11:15;;;;;;;6.50;6.10;;;18.60;99.90;;;;;;4956878;28;20180;-61
2021/09/11 05:13:40;;;;;;;6.30;5.40;;;18.50;99.90;;;;;;4956705;28;20184;-61
2021/09/11 05:16:06;;;;;;;6.00;5.57;;;18.40;99.90;;;;;;4956019;28;20256;-61
2021/09/11 05:18:35;;;;;;;7.20;6.57;;;18.40;99.90;;;;;;4955889;28;20183;-61
2021/09/11 05:21:06;;;;;;;6.57;5.97;;;18.30;99.90;;;;;;4970891;28;20571;-61
2021/09/11 05:23:33;;;;;;;6.03;5.60;;;18.30;99.90;;;;;;4975758;28;20853;-61
2021/09/11 05:25:59;;;;;;;7.10;6.50;;;18.30;99.90;;;;;;4975836;28;20420;-61
2021/09/11 05:28:25;;;;;;;6.57;6.07;;;18.20;99.90;;;;;;4975419;28;20458;-61
2021/09/11 05:30:50;;;;;;;6.60;6.10;;;18.30;99.90;;;;;;4974108;28;20443;-61
2021/09/11 05:33:16;;;;;;;8.13;7.00;;;18.20;99.90;;;;;;4975920;28;20171;-61
2021/09/11 05:35:41;;;;;;;5.97;5.47;;;18.30;99.90;;;;;;4972713;28;20184;-61
2021/09/11 05:38:07;;;;;;;6.20;5.70;;;18.30;99.90;;;;;;4975682;28;20678;-61
2021/09/11 05:40:32;;;;;;;6.47;5.97;;;18.40;99.90;;;;;;4975251;28;20678;-61
2021/09/11 05:42:58;;;;;;;6.20;5.70;;;18.40;99.90;;;;;;4975402;28;20180;-61
2021/09/11 05:45:23;;;;;;;5.70;5.30;;;18.40;99.90;;;;;;4975414;28;20187;-61
2021/09/11 05:47:49;;;;;;;6.67;6.07;;;18.40;99.90;;;;;;4975757;28;20218;-61
2021/09/11 05:50:14;;;;;;;6.73;6.23;;;18.40;99.90;;;;;;4974923;28;20208;-61
2021/09/11 05:52:40;;;;;;;6.13;5.53;;;18.40;99.90;;;;;;4974770;28;20207;-61
2021/09/11 05:55:06;;;;;;;6.00;5.50;;;18.50;99.90;;;;;;4975418;28;20227;-61
2021/09/11 05:57:31;;;;;;;6.70;6.20;;;18.60;99.90;;;;;;4975633;28;20543;-61
2021/09/11 05:59:57;;;;;;;5.83;5.43;;;18.70;99.90;;;;;;4974882;28;20328;-61
2021/09/11 06:02:23;;;;;;;5.57;5.17;;;18.70;99.90;;;;;;4973464;28;20184;-61
2021/09/11 06:04:49;;;;;;;5.87;5.47;;;18.80;99.90;;;;;;4975030;28;20164;-61
2021/09/11 06:07:15;;;;;;;5.40;4.90;;;18.70;99.90;;;;;;4959057;28;21002;-61
2021/09/11 06:09:40;;;;;;;5.70;5.20;;;18.70;99.90;;;;;;4955327;28;20582;-61
2021/09/11 06:12:10;;;;;;;6.50;5.90;;;18.70;99.90;;;;;;4960305;28;20255;-61
2021/09/11 06:14:36;;;;;;;5.50;5.10;;;18.70;99.90;;;;;;4969087;28;20221;-61
2021/09/11 06:17:02;;;;;;;6.10;5.60;;;18.80;99.90;;;;;;4974851;28;20427;-61
2021/09/11 06:19:27;;;;;;;5.57;5.17;;;18.90;99.90;;;;;;4972940;28;20464;-61
2021/09/11 06:21:53;;;;;;;5.27;4.87;;;18.90;99.90;;;;;;4974698;28;20182;-61
2021/09/11 06:24:18;;;;;;;5.20;4.80;;;19.00;99.90;;;;;;4967590;28;20169;-61
2021/09/11 06:26:44;;;;;;;5.00;4.67;;;19.00;99.90;;;;;;4967109;28;20176;-61
2021/09/11 06:29:09;;;;;;;5.83;5.37;;;19.10;99.90;;;;;;4973864;28;20211;-61
2021/09/11 06:31:35;;;;;;;5.47;5.07;;;19.10;99.90;;;;;;4974268;28;20196;-61
2021/09/11 06:34:01;;;;;;;4.50;4.10;;;19.30;99.90;;;;;;4974527;28;20188;-61
2021/09/11 06:36:27;;;;;;;5.00;4.60;;;19.30;99.90;;;;;;4974217;28;20172;-61
2021/09/11 06:38:52;;;;;;;5.83;5.43;;;19.40;99.90;;;;;;4973989;28;20853;-61
2021/09/11 06:41:18;;;;;;;5.13;4.73;;;19.60;99.90;;;;;;4974354;28;20180;-62
2021/09/11 06:43:43;;;;;;;5.13;4.73;;;19.80;99.90;;;;;;4974581;28;20176;-61
2021/09/11 06:46:09;;;;;;;4.60;4.30;;;20.00;99.90;;;;;;4974232;28;20180;-61
2021/09/11 06:48:34;;;;;;;5.77;5.37;;;20.10;99.90;;;;;;4973909;28;20247;-62
2021/09/11 06:51:00;;;;;;;4.40;4.10;;;20.20;99.90;;;;;;4973897;28;20255;-61
2021/09/11 06:53:25;;;;;;;4.83;4.43;;;20.20;99.90;;;;;;4974267;28;20665;-61
2021/09/11 06:55:51;;;;;;;5.50;5.07;;;20.10;99.90;;;;;;4973702;28;20175;-62
2021/09/11 06:58:16;;;;;;;5.70;5.20;;;20.00;99.90;;;;;;4973824;28;20180;-61
2021/09/11 07:00:42;;;;;;;8.33;6.27;;;19.90;99.90;;;;;;4973802;28;20211;-62
2021/09/11 07:03:07;;;;;;;5.50;4.93;;;19.90;99.90;;;;;;4974048;28;20255;-61
2021/09/11 07:05:33;;;;;;;4.40;4.10;;;19.80;99.90;;;;;;4967385;28;20552;-62
2021/09/11 07:07:59;;;;;;;4.10;3.80;;;19.80;99.90;;;;;;4955036;28;20189;-61
2021/09/11 07:10:24;;;;;;;4.47;4.17;;;19.60;99.90;;;;;;4963004;28;20474;-61
2021/09/11 07:12:50;;;;;;;4.63;4.23;;;19.70;99.90;;;;;;4973454;28;20180;-61
2021/09/11 07:15:15;;;;;;;4.90;4.50;;;19.80;99.90;;;;;;4973766;28;20180;-61
2021/09/11 07:17:41;;;;;;;6.77;5.13;;;19.90;99.90;;;;;;4973768;28;20226;-61
2021/09/11 07:20:08;;;;;;;5.23;4.80;;;20.00;99.90;;;;;;4973411;28;20609;-62
2021/09/11 07:22:33;;;;;;;5.10;4.70;;;20.00;99.90;;;;;;4973923;28;20669;-62
2021/09/11 07:24:59;;;;;;;4.53;4.17;;;20.00;99.90;;;;;;4973679;28;20763;-61
2021/09/11 07:27:24;;;;;;;4.13;3.80;;;20.20;99.90;;;;;;4973976;28;20657;-61
2021/09/11 07:29:50;;;;;;;4.63;4.33;;;20.50;99.90;;;;;;4973127;28;20725;-61
2021/09/11 07:32:15;;;;;;;4.17;3.77;;;20.60;99.90;;;;;;4969345;28;20416;-60
2021/09/11 07:34:41;;;;;;;5.00;4.60;;;20.60;99.90;;;;;;4963783;28;20524;-62
2021/09/11 07:37:06;;;;;;;4.07;3.77;;;21.00;99.90;;;;;;4973491;28;20606;-61
2021/09/11 07:39:32;;;;;;;4.67;4.37;;;21.10;99.90;;;;;;4956742;28;20197;-61
2021/09/11 07:41:58;;;;;;;5.50;4.40;;;21.40;99.90;;;;;;4954101;29;20180;-60
2021/09/11 07:44:23;;;;;;;5.30;4.90;;;21.50;99.90;;;;;;4954216;29;20542;-61
2021/09/11 07:46:49;;;;;;;4.53;4.23;;;21.30;99.90;;;;;;4957791;28;20684;-61
2021/09/11 07:49:14;;;;;;;5.30;4.90;;;21.30;99.90;;;;;;4962030;28;20208;-61
2021/09/11 07:51:40;;;;;;;4.53;4.13;;;21.30;99.90;;;;;;4973425;28;20778;-61
2021/09/11 07:54:05;;;;;;;4.90;4.47;;;21.20;99.90;;;;;;4961046;28;20175;-61
2021/09/11 07:56:31;;;;;;;4.90;4.50;;;21.30;99.90;;;;;;4972507;28;20208;-60
2021/09/11 07:58:56;;;;;;;4.40;4.10;;;21.40;99.90;;;;;;4970689;28;20184;-61
2021/09/11 08:01:22;;;;;;;5.30;4.80;;;21.50;99.90;;;;;;4962972;28;20176;-61
2021/09/11 08:03:47;;;;;;;4.53;4.23;;;21.40;99.90;;;;;;4973215;28;20176;-61
2021/09/11 08:06:13;;;;;;;4.43;4.13;;;21.40;99.90;;;;;;4956877;28;20180;-59
2021/09/11 08:08:39;;;;;;;4.00;3.70;;;21.80;99.90;;;;;;4953466;29;20203;-61
2021/09/11 08:11:08;;;;;;;5.40;5.00;;;22.10;99.90;;;;;;4953758;29;20189;-61
2021/09/11 08:13:34;;;;;;;4.73;4.43;;;22.50;99.90;;;;;;4957491;28;20225;-60
2021/09/11 08:16:00;;;;;;;5.20;4.80;;;22.70;99.90;;;;;;4964464;28;20514;-58
2021/09/11 08:18:25;;;;;;;5.30;4.80;;;22.60;99.90;;;;;;4972705;28;20499;-61
2021/09/11 08:20:52;;;;;;;5.30;4.90;;;22.40;99.90;;;;;;4970736;28;20212;-61
2021/09/11 08:23:18;;;;;;;4.60;4.20;;;22.50;99.90;;;;;;4973002;28;20246;-61
2021/09/11 08:25:45;;;;;;;5.03;4.63;;;22.40;99.90;;;;;;4972932;28;20954;-60
2021/09/11 08:28:13;;;;;;;5.20;4.90;;;22.80;99.90;;;;;;4956308;28;20516;-61
2021/09/11 08:30:38;;;;;;;5.17;4.87;;;22.80;99.90;;;;;;4954758;28;20460;-61
2021/09/11 08:33:04;;;;;;;6.20;5.60;;;22.80;99.90;;;;;;4955757;28;20443;-60
2021/09/11 08:35:29;;;;;;;4.13;3.77;;;22.80;99.90;;;;;;4954709;28;20188;-59
2021/09/11 08:37:55;;;;;;;4.73;4.30;;;23.10;99.90;;;;;;4957422;28;20172;-61
2021/09/11 08:40:21;;;;;;;4.93;4.63;;;23.50;99.90;;;;;;4956320;28;20212;-61
2021/09/11 08:42:48;;;;;;;5.30;4.90;;;23.60;99.90;;;;;;4957792;28;20185;-61
2021/09/11 08:45:15;;;;;;;4.87;4.57;;;23.80;99.90;;;;;;4954419;28;20444;-61
2021/09/11 08:47:45;;;;;;;5.90;5.40;;;23.50;99.90;;;;;;4952208;29;20432;-61
2021/09/11 08:50:15;;;;;;;5.93;5.43;;;23.70;99.90;;;;;;4953018;28;20468;-60
2021/09/11 08:52:48;;;;;;;5.10;4.70;;;23.80;99.90;;;;;;4956842;28;20436;-61
2021/09/11 08:55:15;;;;;;;4.70;4.30;;;23.60;99.90;;;;;;4961850;28;20431;-61
2021/09/11 08:58:01;;;;;;;4.53;4.13;;;24.10;99.90;;;;;;4959447;28;20428;-61
2021/09/11 09:00:58;;;;;;;4.97;4.60;;;24.30;99.90;;;;;;4971013;28;20455;-62
2021/09/11 09:03:41;;;;;;;4.53;4.20;;;24.70;99.90;;;;;;4976176;28;20435;-62
2021/09/11 09:06:10;;;;;;;4.90;3.80;;;25.40;99.90;;;;;;4973926;28;20503;-64
2021/09/11 09:08:35;;;;;;;4.30;3.10;;;25.70;99.90;;;;;;4973144;28;20903;-63
2021/09/11 09:11:19;;;;;;;3.47;3.20;;;26.60;99.90;;;;;;4960925;28;20543;-61
2021/09/11 09:13:50;;;;;;;4.40;3.93;;;27.40;99.90;;;;;;4975897;28;20192;-61
2021/09/11 09:16:16;;;;;;;3.93;3.47;;;28.00;99.90;;;;;;4976047;28;20786;-61
2021/09/11 09:18:42;;;;;;;3.70;3.40;;;28.10;99.90;;;;;;4976172;28;20423;-61
2021/09/11 09:21:21;;;;;;;4.60;4.30;;;27.60;99.90;;;;;;4975649;28;20533;-61
2021/09/11 09:23:55;;;;;;;4.37;4.07;;;26.80;99.90;;;;;;4975895;28;20646;-63
2021/09/11 09:26:21;;;;;;;6.00;4.40;;;26.50;99.90;;;;;;4975776;28;20847;-63
2021/09/11 09:29:08;;;;;;;4.73;4.33;;;26.00;99.90;;;;;;4975340;28;20559;-63
2021/09/11 09:31:34;;;;;;;3.90;3.60;;;25.90;99.90;;;;;;4975759;28;20613;-63
2021/09/11 09:34:00;;;;;;;5.50;3.20;;;26.20;99.90;;;;;;4975794;28;20430;-63
2021/09/11 09:36:34;;;;;;;3.30;3.10;;;26.20;99.90;;;;;;4975633;28;20420;-63
2021/09/11 09:39:01;;;;;;;4.10;3.80;;;26.30;99.90;;;;;;4975226;28;20263;-63
2021/09/11 09:41:44;;;;;;;4.33;3.63;;;26.60;99.90;;;;;;4975594;28;20903;-63
2021/09/11 09:44:11;;;;;;;2.70;2.50;;;26.60;99.90;;;;;;4975619;28;20467;-63
2021/09/11 09:46:40;;;;;;;3.30;3.10;;;26.40;99.90;;;;;;4975538;28;20419;-63
2021/09/11 09:49:06;;;;;;;3.40;3.10;;;26.40;99.90;;;;;;4975091;28;20485;-63
2021/09/11 09:51:33;;;;;;;3.83;2.67;;;26.50;99.90;;;;;;4975287;28;20795;-63
2021/09/11 09:53:59;;;;;;;3.40;3.20;;;26.40;99.90;;;;;;4975378;28;20419;-63
2021/09/11 09:56:26;;;;;;;2.97;2.77;;;25.80;99.90;;;;;;4973944;28;20510;-63
2021/09/11 09:58:52;;;;;;;4.47;4.07;;;25.50;99.90;;;;;;4975139;28;20981;-63
2021/09/11 10:01:18;;;;;;;4.00;3.70;;;25.70;99.90;;;;;;4975144;28;20464;-63
2021/09/11 10:03:44;;;;;;;5.00;3.90;;;25.80;99.90;;;;;;4974602;28;20913;-63
2021/09/11 10:06:31;;;;;;;3.80;3.50;;;25.10;99.90;;;;;;4975057;28;20180;-63
2021/09/11 10:09:06;;;;;;;3.03;2.83;;;25.00;99.90;;;;;;4974710;28;20250;-63
2021/09/11 10:11:42;;;;;;;3.60;3.40;;;25.80;99.90;;;;;;4975100;28;20780;-63
2021/09/11 10:14:13;;;;;;;3.50;3.30;;;27.70;99.90;;;;;;4974686;28;20789;-63
2021/09/11 10:16:42;;;;;;;4.33;3.93;;;29.10;99.90;;;;;;4974325;28;20434;-64
2021/09/11 10:19:19;;;;;;;3.07;2.87;;;29.20;98.90;;;;;;4974805;28;20988;-64
2021/09/11 10:21:50;;;;;;;3.43;3.23;;;29.10;99.20;;;;;;4974848;28;20429;-63
2021/09/11 10:24:18;;;;;;;4.30;3.57;;;28.70;99.00;;;;;;4973079;28;20530;-64
2021/09/11 10:26:46;;;;;;;7.13;4.27;;;27.80;99.80;;;;;;4973208;28;20467;-63
2021/09/11 10:29:30;;;;;;;3.70;3.40;;;27.40;99.90;;;;;;4974177;28;20471;-63
2021/09/11 10:31:58;;;;;;;6.47;5.87;;;26.90;99.90;;;;;;4974765;28;20408;-63
2021/09/11 10:35:15;;;;;;;4.43;4.13;;;26.10;99.90;;;;;;4974359;28;20415;-63
2021/09/11 10:37:46;;;;;;;5.20;4.37;;;25.70;99.90;;;;;;4931530;28;20442;-63
2021/09/11 10:40:28;;;;;;;4.23;3.73;;;25.40;99.90;;;;;;4971043;28;20519;-63
2021/09/11 10:43:23;;;;;;;4.00;3.70;;;25.10;99.90;;;;;;4968752;28;20435;-63
2021/09/11 10:45:52;;;;;;;3.67;3.33;;;24.80;99.90;;;;;;4969382;28;20439;-63
2021/09/11 10:48:36;;;;;;;4.50;4.20;;;24.70;99.90;;;;;;4952732;28;20472;-64
2021/09/11 10:51:28;;;;;;;6.97;3.40;;;24.40;99.90;;;;;;4965760;28;20518;-63
2021/09/11 10:54:04;;;;;;;5.20;3.53;;;24.20;99.90;;;;;;4970894;28;20420;-63
2021/09/11 10:56:58;;;;;;;3.17;2.97;;;24.20;99.90;;;;;;4970782;28;20928;-63
2021/09/11 10:59:26;;;;;;;4.10;3.80;;;23.80;99.90;;;;;;4969401;28;20439;-63
2021/09/11 11:02:24;;;;;;;3.90;3.60;;;23.60;99.90;;;;;;4969832;28;20462;-62
2021/09/11 11:04:49;;;;;;;3.43;3.23;;;23.40;99.90;;;;;;4959384;28;20538;-62
2021/09/11 11:07:19;;;;;;;3.57;3.37;;;23.40;99.90;;;;;;4970473;28;20443;-62
2021/09/11 11:09:54;;;;;;;4.20;3.80;;;23.30;99.90;;;;;;4967468;28;20212;-62
2021/09/11 11:12:35;;;;;;;5.00;4.60;;;23.00;99.90;;;;;;4956726;28;20435;-62
2021/09/11 11:15:08;;;;;;;10.33;5.17;;;22.50;99.90;;;;;;4960668;28;20837;-62
2021/09/11 11:17:43;;;;;;;8.07;5.80;;;21.80;99.90;;;;;;4967245;28;20497;-62
2021/09/11 11:20:10;;;;;;;9.90;5.93;;;21.00;99.90;;;;;;4965521;28;20509;-61
2021/09/11 11:22:38;;;;;;;10.07;6.23;;;20.50;99.90;;;;;;4961997;28;20447;-62
2021/09/11 11:25:06;;;;;;;12.87;6.10;;;20.10;99.90;;;;;;4967484;28;20786;-61
2021/09/11 11:27:33;;;;;;;7.63;5.57;;;20.00;99.90;;;;;;4972648;28;20431;-62
2021/09/11 11:29:59;;;;;;;8.83;7.60;;;20.10;99.90;;;;;;4972976;28;20463;-61
2021/09/11 11:32:32;;;;;;;8.20;5.37;;;19.80;99.90;;;;;;4973592;28;20430;-61
2021/09/11 11:35:01;;;;;;;5.23;4.83;;;19.90;99.90;;;;;;4971522;28;20552;-60
2021/09/11 11:37:29;;;;;;;6.80;5.57;;;19.90;99.90;;;;;;4973494;28;20415;-60
2021/09/11 11:39:58;;;;;;;5.93;5.23;;;20.00;99.90;;;;;;4965141;28;20452;-61
2021/09/11 11:42:26;;;;;;;6.80;6.10;;;20.20;99.90;;;;;;4954310;28;20836;-61
2021/09/11 11:44:54;;;;;;;6.20;5.77;;;20.30;99.90;;;;;;4952607;29;20432;-61
2021/09/11 11:47:26;;;;;;;5.90;5.40;;;20.30;99.90;;;;;;4960172;28;20526;-62
2021/09/11 11:49:52;;;;;;;5.63;5.23;;;20.50;99.90;;;;;;4962374;28;20981;-61
2021/09/11 11:52:18;;;;;;;4.90;4.50;;;20.50;99.90;;;;;;4953771;29;20474;-62
2021/09/11 11:54:46;;;;;;;11.53;8.30;;;20.80;99.90;;;;;;4980408;28;20267;-62
2021/09/11 11:57:20;;;;;;;6.47;4.97;;;21.30;99.90;;;;;;4953800;29;20929;-62
2021/09/11 12:00:04;;;;;;;7.50;4.07;;;21.80;99.90;;;;;;4957397;28;20550;-62
2021/09/11 12:02:31;;;;;;;4.70;4.30;;;22.00;99.90;;;;;;4967548;28;20587;-62
2021/09/11 12:05:25;;;;;;;6.20;4.10;;;21.60;99.90;;;;;;4972039;28;20435;-61
2021/09/11 12:07:53;;;;;;;7.27;6.60;;;21.50;99.90;;;;;;4953793;29;20435;-62
2021/09/11 12:10:19;;;;;;;4.93;4.50;;;21.40;99.90;;;;;;4970000;28;20915;-62
2021/09/11 12:12:52;;;;;;;5.00;4.60;;;21.30;99.90;;;;;;4973042;28;20428;-62
2021/09/11 12:15:21;;;;;;;7.83;7.10;;;21.20;99.90;;;;;;4973066;28;20490;-62
2021/09/11 12:18:14;;;;;;;6.23;5.50;;;21.20;99.90;;;;;;4966673;28;20459;-63
2021/09/11 12:20:45;;;;;;;7.53;4.97;;;21.50;99.90;;;;;;4961945;28;20566;-62
2021/09/11 12:23:16;;;;;;;5.23;4.83;;;21.50;99.90;;;;;;4972264;28;20878;-61
2021/09/11 12:26:02;;;;;;;4.80;4.30;;;21.70;99.90;;;;;;4973391;28;20478;-65
2021/09/11 12:28:39;;;;;;;4.23;3.70;;;22.00;99.90;;;;;;4974913;28;20467;-63
2021/09/11 12:31:24;;;;;;;5.00;4.60;;;22.20;99.90;;;;;;4974149;28;20477;-63
2021/09/11 12:34:00;;;;;;;4.67;4.27;;;22.80;99.90;;;;;;4958646;28;20448;-61
2021/09/11 12:36:30;;;;;;;3.90;3.60;;;23.30;99.90;;;;;;4964142;28;20465;-62
2021/09/11 12:39:00;;;;;;;4.13;3.50;;;23.30;99.90;;;;;;4976239;28;20511;-62
2021/09/11 12:41:26;;;;;;;4.50;3.37;;;23.80;99.90;;;;;;4976592;28;20450;-62
2021/09/11 12:43:51;;;;;;;4.43;3.70;;;24.00;99.90;;;;;;4976082;28;20467;-62
2021/09/11 12:46:27;;;;;;;4.67;3.70;;;24.30;99.90;;;;;;4976463;28;20658;-62
2021/09/11 12:48:53;;;;;;;3.67;3.37;;;26.20;99.90;;;;;;4975869;28;20246;-62